createdAt,value
2023-09-25T00:00:56.072Z,101686.45
2023-09-25T00:06:14.646Z,101686.63
2023-09-25T00:11:18.112Z,101693.25
2023-09-25T00:16:27.492Z,101705.52
2023-09-25T00:21:31.504Z,101707.47
2023-09-25T00:26:37.492Z,101703.98
2023-09-25T00:31:40.862Z,101706.11
2023-09-25T00:36:46.373Z,101706.15
2023-09-25T00:41:49.960Z,101704.27
2023-09-25T00:46:56.021Z,101700.28
2023-09-25T00:52:00.590Z,101692.61
2023-09-25T00:57:07.579Z,101692.13
2023-09-25T01:02:11.967Z,101685.68
2023-09-25T01:07:18.059Z,101693.47
2023-09-25T01:12:22.268Z,101691.77
2023-09-25T01:17:26.300Z,101697.59
2023-09-25T01:22:31.979Z,101702.70
2023-09-25T01:27:35.371Z,101700.98
2023-09-25T01:32:40.342Z,101693.29
2023-09-25T01:37:46.222Z,101699.10
2023-09-25T01:42:49.740Z,101692.83
2023-09-25T01:47:56.694Z,101700.27
2023-09-25T01:53:09.152Z,101711.92
2023-09-25T01:58:14.984Z,101708.77
2023-09-25T02:03:31.657Z,101704.56
2023-09-25T02:08:35.628Z,101711.45
2023-09-25T02:13:44.007Z,101701.33
2023-09-25T02:18:52.968Z,101701.74
2023-09-25T02:23:56.405Z,101690.09
2023-09-25T02:28:59.887Z,101686.80
2023-09-25T02:34:03.688Z,101684.35
2023-09-25T02:39:10.219Z,101689.45
2023-09-25T02:44:16.205Z,101694.23
2023-09-25T02:49:30.349Z,101699.02
2023-09-25T02:54:33.754Z,101698.52
2023-09-25T02:59:40.297Z,101690.88
2023-09-25T03:04:45.004Z,101684.44
2023-09-25T03:09:48.553Z,101683.28
2023-09-25T03:14:52.668Z,101682.46
2023-09-25T03:19:55.926Z,101689.35
2023-09-25T03:25:01.698Z,101689.41
2023-09-25T03:30:06.937Z,101687.02
2023-09-25T03:35:12.014Z,101692.67
2023-09-25T03:40:18.462Z,101689.61
2023-09-25T03:45:24.308Z,101706.31
2023-09-25T03:50:29.691Z,101708.81
2023-09-25T03:55:33.268Z,101716.02
2023-09-25T04:00:39.083Z,101713.45
2023-09-25T04:05:42.403Z,101722.62
2023-09-25T04:10:45.737Z,101733.33
2023-09-25T04:15:50.178Z,101738.08
2023-09-25T04:20:53.510Z,101738.09
2023-09-25T04:26:02.119Z,101735.96
2023-09-25T04:31:06.817Z,101732.27
2023-09-25T04:36:12.183Z,101731.04
2023-09-25T04:41:15.690Z,101743.10
2023-09-25T04:46:19.324Z,101753.10
2023-09-25T04:51:22.601Z,101761.45
2023-09-25T04:56:25.769Z,101769.33
2023-09-25T05:01:32.115Z,101768.09
2023-09-25T05:06:35.684Z,101765.96
2023-09-25T05:11:39.145Z,101762.23
2023-09-25T05:16:51.228Z,101756.55
2023-09-25T05:21:55.004Z,101749.96
2023-09-25T05:27:07.324Z,101751.21
2023-09-25T05:32:10.763Z,101750.98
2023-09-25T05:37:14.129Z,101746.34
2023-09-25T05:42:17.840Z,101745.37
2023-09-25T05:47:39.873Z,101747.45
2023-09-25T05:52:48.313Z,101750.36
2023-09-25T05:57:57.076Z,101751.75
2023-09-25T06:03:00.625Z,101751.09
2023-09-25T06:08:07.211Z,101751.53
2023-09-25T06:13:11.114Z,101751.84
2023-09-25T06:18:15.017Z,101751.50
2023-09-25T06:23:18.267Z,101753.52
2023-09-25T06:28:25.323Z,101751.92
2023-09-25T06:33:30.263Z,101754.48
2023-09-25T06:38:33.555Z,101761.98
2023-09-25T06:43:37.548Z,101769.12
2023-09-25T06:48:40.764Z,101767.24
2023-09-25T06:53:44.300Z,101765.73
2023-09-25T06:58:47.686Z,101765.27
2023-09-25T07:03:51.468Z,101770.72
2023-09-25T07:08:55.193Z,101772.14
2023-09-25T07:14:08.011Z,101776.72
2023-09-25T07:19:12.317Z,101779.72
2023-09-25T07:24:15.778Z,101784.09
2023-09-25T07:29:38.743Z,101783.63
2023-09-25T07:34:44.388Z,101786.09
2023-09-25T07:39:47.875Z,101786.91
2023-09-25T07:44:51.197Z,101785.35
2023-09-25T07:49:55.266Z,101787.31
2023-09-25T07:54:58.528Z,101780.36
2023-09-25T08:00:11.323Z,101777.16
2023-09-25T08:05:22.963Z,101771.86
2023-09-25T08:10:26.344Z,101772.25
2023-09-25T08:15:29.827Z,101767.13
2023-09-25T08:20:34.017Z,101767.71
2023-09-25T08:25:37.309Z,101770.98
2023-09-25T08:30:41.218Z,101767.47
2023-09-25T08:35:44.681Z,101762.96
2023-09-25T08:40:51.560Z,101763.14
2023-09-25T08:45:56.636Z,101760.18
2023-09-25T08:51:00.090Z,101763.80
2023-09-25T08:56:03.386Z,101763.11
2023-09-25T09:01:06.876Z,101761.61
2023-09-25T09:06:10.195Z,101755.64
2023-09-25T09:11:14.619Z,101756.20
2023-09-25T09:16:20.667Z,101757.23
2023-09-25T09:21:26.530Z,101752.19
2023-09-25T09:26:30.326Z,101745.86
2023-09-25T09:31:34.128Z,101747.46
2023-09-25T09:36:38.581Z,101740.52
2023-09-25T09:41:45.627Z,101737.63
2023-09-25T09:46:51.818Z,101738.20
2023-09-25T09:51:55.461Z,101734.77
2023-09-25T09:57:01.848Z,101732.88
2023-09-25T10:02:07.408Z,101728.91
2023-09-25T10:07:11.380Z,101725.77
2023-09-25T10:12:14.747Z,101726.73
2023-09-25T10:17:18.292Z,101726.13
2023-09-25T10:22:30.674Z,101726.58
2023-09-25T10:27:38.009Z,101718.20
2023-09-25T10:32:50.564Z,101713.67
2023-09-25T10:38:29.232Z,101716.86
2023-09-25T10:43:58.283Z,101716.36
2023-09-25T10:49:02.130Z,101709.75
2023-09-25T10:54:05.481Z,101706.81
2023-09-25T10:59:08.880Z,101703.42
2023-09-25T11:04:12.608Z,101696.29
2023-09-25T11:09:19.970Z,101686.20
2023-09-25T11:14:23.427Z,101677.23
2023-09-25T11:19:26.644Z,101669.41
2023-09-25T11:24:32.301Z,101671.89
2023-09-25T11:29:37.105Z,101674.15
2023-09-25T11:34:40.728Z,101680.47
2023-09-25T11:39:45.035Z,101672.01
2023-09-25T11:44:48.333Z,101668.77
2023-09-25T11:49:53.113Z,101661.32
2023-09-25T11:54:56.609Z,101654.69
2023-09-25T12:00:00.114Z,101653.04
2023-09-25T12:05:06.964Z,101649.55
2023-09-25T12:10:18.247Z,101643.73
2023-09-25T12:15:23.113Z,101641.69
2023-09-25T12:20:27.368Z,101645.23
2023-09-25T12:25:31.647Z,101640.66
2023-09-25T12:30:35.361Z,101637.31
2023-09-25T12:35:42.498Z,101632.48
2023-09-25T12:40:45.959Z,101630.16
2023-09-25T12:45:49.228Z,101625.04
2023-09-25T12:50:52.875Z,101621.87
2023-09-25T12:55:58.192Z,101622.73
2023-09-25T13:01:01.701Z,101614.37
2023-09-25T13:06:07.749Z,101610.48
2023-09-25T13:11:10.901Z,101609.30
2023-09-25T13:16:14.132Z,101610.33
2023-09-25T13:21:18.029Z,101606.65
2023-09-25T13:26:26.187Z,101607.35
2023-09-25T13:31:29.582Z,101603.83
2023-09-25T13:36:33.431Z,101600.20
2023-09-25T13:41:36.669Z,101598.18
2023-09-25T13:46:39.994Z,101588.56
2023-09-25T13:51:43.313Z,101584.43
2023-09-25T13:56:46.705Z,101583.80
2023-09-25T14:01:50.790Z,101581.20
2023-09-25T14:06:55.132Z,101582.23
2023-09-25T14:11:58.792Z,101580.36
2023-09-25T14:17:02.159Z,101581.17
2023-09-25T14:22:05.875Z,101580.13
2023-09-25T14:27:11.127Z,101581.05
2023-09-25T14:32:14.783Z,101583.80
2023-09-25T14:37:17.901Z,101579.55
2023-09-25T14:42:21.281Z,101581.64
2023-09-25T14:47:24.388Z,101587.98
2023-09-25T14:52:27.561Z,101581.21
2023-09-25T14:57:30.984Z,101579.58
2023-09-25T15:02:34.805Z,101571.61
2023-09-25T15:07:38.148Z,101572.04
2023-09-25T15:12:41.374Z,101570.92
2023-09-25T15:17:49.757Z,101567.76
2023-09-25T15:22:53.016Z,101564.48
2023-09-25T15:27:56.211Z,101560.27
2023-09-25T15:32:59.436Z,101559.80
2023-09-25T15:38:02.937Z,101558.36
2023-09-25T15:43:06.119Z,101560.17
2023-09-25T15:48:09.303Z,101560.76
2023-09-25T15:53:13.201Z,101566.02
2023-09-25T15:58:16.423Z,101565.18
2023-09-25T16:03:19.728Z,101565.17
2023-09-25T16:08:23.206Z,101564.63
2023-09-25T16:13:26.437Z,101568.06
2023-09-25T16:18:29.706Z,101573.83
2023-09-25T16:23:33.266Z,101573.45
2023-09-25T16:28:36.572Z,101577.96
2023-09-25T16:33:39.846Z,101573.16
2023-09-25T16:38:43.131Z,101577.08
2023-09-25T16:43:46.292Z,101583.77
2023-09-25T16:48:49.524Z,101589.77
2023-09-25T16:53:52.954Z,101586.98
2023-09-25T16:58:56.111Z,101591.95
2023-09-25T17:04:00.615Z,101594.14
2023-09-25T17:09:04.169Z,101592.98
2023-09-25T17:14:09.622Z,101599.40
2023-09-25T17:19:12.916Z,101603.55
2023-09-25T17:24:16.379Z,101611.10
2023-09-25T17:29:19.725Z,101612.68
2023-09-25T17:34:24.339Z,101616.02
2023-09-25T17:39:27.822Z,101610.52
2023-09-25T17:44:31.166Z,101607.48
2023-09-25T17:49:34.370Z,101607.48
2023-09-25T17:54:37.589Z,101605.23
2023-09-25T17:59:41.223Z,101609.99
2023-09-25T18:04:45.237Z,101608.73
2023-09-25T18:09:49.948Z,101610.84
2023-09-25T18:14:53.387Z,101604.05
2023-09-25T18:19:56.687Z,101606.94
2023-09-25T18:24:59.891Z,101608.84
2023-09-25T18:30:03.346Z,101608.48
2023-09-25T18:35:06.650Z,101602.94
2023-09-25T18:40:10.814Z,101598.36
2023-09-25T18:45:14.393Z,101596.27
2023-09-25T18:50:17.678Z,101594.79
2023-09-25T18:55:20.997Z,101597.63
2023-09-25T19:00:25.323Z,101598.80
2023-09-25T19:05:28.718Z,101601.35
2023-09-25T19:10:34.812Z,101598.05
2023-09-25T19:15:38.647Z,101599.60
2023-09-25T19:20:42.178Z,101605.24
2023-09-25T19:25:46.453Z,101607.41
2023-09-25T19:30:49.751Z,101610.08
2023-09-25T19:35:53.020Z,101614.13
2023-09-25T19:40:56.470Z,101608.91
2023-09-25T19:45:59.830Z,101602.39
2023-09-25T19:51:03.504Z,101603.34
2023-09-25T19:56:07.609Z,101606.02
2023-09-25T20:01:12.868Z,101605.10
2023-09-25T20:06:16.223Z,101602.75
2023-09-25T20:11:19.375Z,101598.35
2023-09-25T20:16:22.734Z,101602.74
2023-09-25T20:21:27.245Z,101599.76
2023-09-25T20:26:30.774Z,101598.38
2023-09-25T20:31:34.034Z,101600.63
2023-09-25T20:36:37.502Z,101595.95
2023-09-25T20:41:40.785Z,101594.30
2023-09-25T20:46:49.559Z,101586.67
2023-09-25T20:51:54.039Z,101588.76
2023-09-25T20:56:57.403Z,101591.69
2023-09-25T21:02:00.727Z,101586.25
2023-09-25T21:07:04.402Z,101585.63
2023-09-25T21:12:09.230Z,101585.49
2023-09-25T21:17:12.645Z,101583.95
2023-09-25T21:22:15.876Z,101583.30
2023-09-25T21:27:19.680Z,101584.66
2023-09-25T21:32:23.025Z,101585.73
2023-09-25T21:37:26.330Z,101581.06
2023-09-25T21:42:29.584Z,101580.02
2023-09-25T21:47:32.999Z,101575.80
2023-09-25T21:52:38.680Z,101572.70
2023-09-25T21:57:45.153Z,101569.64
2023-09-25T22:02:48.540Z,101574.09
2023-09-25T22:07:54.172Z,101577.02
2023-09-25T22:12:57.475Z,101580.21
2023-09-25T22:18:01.023Z,101580.70
2023-09-25T22:23:05.872Z,101579.39
2023-09-25T22:28:09.178Z,101574.41
2023-09-25T22:33:12.901Z,101568.55
2023-09-25T22:38:16.567Z,101568.82
2023-09-25T22:43:19.890Z,101564.13
2023-09-25T22:48:23.383Z,101567.46
2023-09-25T22:53:26.837Z,101566.14
2023-09-25T22:58:30.927Z,101563.65
2023-09-25T23:03:34.812Z,101559.96
2023-09-25T23:08:38.494Z,101556.44
2023-09-25T23:13:41.894Z,101550.14
2023-09-25T23:18:45.086Z,101548.80
2023-09-25T23:23:49.053Z,101547.41
2023-09-25T23:28:52.979Z,101547.48
2023-09-25T23:33:56.269Z,101549.20
2023-09-25T23:38:59.666Z,101548.44
2023-09-25T23:44:03.059Z,101543.17
2023-09-25T23:49:06.347Z,101546.97
2023-09-25T23:54:10.014Z,101550.58
2023-09-25T23:59:13.157Z,101545.16
